createdAt,value
2022-09-12T00:00:44.781Z,15.38
2022-09-12T00:01:47.058Z,15.37
2022-09-12T00:02:53.909Z,15.38
2022-09-12T00:03:59.541Z,15.37
2022-09-12T00:05:01.666Z,15.37
2022-09-12T00:06:27.893Z,15.37
2022-09-12T00:07:30.124Z,15.36
2022-09-12T00:08:32.292Z,15.35
2022-09-12T00:09:36.713Z,15.35
2022-09-12T00:10:44.093Z,15.35
2022-09-12T00:11:47.054Z,15.35
2022-09-12T00:12:49.216Z,15.34
2022-09-12T00:13:51.980Z,15.34
2022-09-12T00:14:54.281Z,15.32
2022-09-12T00:15:56.520Z,15.33
2022-09-12T00:16:59.671Z,15.32
2022-09-12T00:18:01.804Z,15.34
2022-09-12T00:19:05.664Z,15.31
2022-09-12T00:20:09.506Z,15.31
2022-09-12T00:21:11.677Z,15.31
2022-09-12T00:22:13.803Z,15.31
2022-09-12T00:23:15.993Z,15.31
2022-09-12T00:24:18.279Z,15.30
2022-09-12T00:25:20.433Z,15.31
2022-09-12T00:26:22.816Z,15.30
2022-09-12T00:27:25.026Z,15.29
2022-09-12T00:28:28.140Z,15.29
2022-09-12T00:29:30.269Z,15.29
2022-09-12T00:30:32.908Z,15.29
2022-09-12T00:31:35.436Z,15.28
2022-09-12T00:32:37.642Z,15.28
2022-09-12T00:33:40.397Z,15.28
2022-09-12T00:34:42.546Z,15.27
2022-09-12T00:35:52.868Z,15.26
2022-09-12T00:36:55.025Z,15.25
2022-09-12T00:37:57.167Z,15.25
2022-09-12T00:38:59.520Z,15.25
2022-09-12T00:40:02.312Z,15.23
2022-09-12T00:41:17.166Z,15.23
2022-09-12T00:42:19.396Z,15.22
2022-09-12T00:43:30.851Z,15.20
2022-09-12T00:44:35.955Z,15.18
2022-09-12T00:45:38.921Z,15.18
2022-09-12T00:46:45.380Z,15.17
2022-09-12T00:47:50.687Z,15.16
2022-09-12T00:48:59.786Z,15.14
2022-09-12T00:50:04.661Z,15.13
2022-09-12T00:51:06.903Z,15.11
2022-09-12T00:52:13.454Z,15.10
2022-09-12T00:53:15.716Z,15.09
2022-09-12T00:54:24.483Z,15.08
2022-09-12T00:55:35.138Z,15.06
2022-09-12T00:56:40.081Z,15.04
2022-09-12T00:58:06.847Z,15.03
2022-09-12T00:59:15.361Z,15.02
2022-09-12T01:00:20.524Z,14.99
2022-09-12T01:01:29.223Z,14.99
2022-09-12T01:02:34.618Z,14.97
2022-09-12T01:03:36.959Z,14.95
2022-09-12T01:04:42.073Z,14.94
2022-09-12T01:06:03.429Z,14.93
2022-09-12T01:07:07.598Z,14.90
2022-09-12T01:08:10.232Z,14.90
2022-09-12T01:09:17.096Z,14.89
2022-09-12T01:10:20.514Z,14.87
2022-09-12T01:11:23.259Z,14.87
2022-09-12T01:12:26.038Z,14.84
2022-09-12T01:13:28.895Z,14.84
2022-09-12T01:14:32.653Z,14.81
2022-09-12T01:15:37.826Z,14.80
2022-09-12T01:16:40.270Z,14.79
2022-09-12T01:18:00.766Z,14.78
2022-09-12T01:19:15.113Z,14.78
2022-09-12T01:20:46.081Z,14.75
2022-09-12T01:22:15.914Z,14.74
2022-09-12T01:23:55.482Z,14.72
2022-09-12T01:25:22.321Z,14.72
2022-09-12T01:27:01.750Z,14.71
2022-09-12T01:28:06.592Z,14.68
2022-09-12T01:29:32.723Z,14.66
2022-09-12T01:31:04.008Z,14.64
2022-09-12T01:32:21.298Z,14.64
2022-09-12T01:33:29.740Z,14.64
2022-09-12T01:34:45.682Z,14.62
2022-09-12T01:36:09.182Z,14.61
2022-09-12T01:37:23.579Z,14.60
2022-09-12T01:38:29.784Z,14.60
2022-09-12T01:39:49.882Z,14.57
2022-09-12T01:41:37.453Z,14.58
2022-09-12T01:43:04.565Z,14.56
2022-09-12T01:44:35.164Z,14.56
2022-09-12T01:45:45.834Z,14.55
2022-09-12T01:47:05.606Z,14.55
2022-09-12T01:48:20.374Z,14.54
2022-09-12T01:49:40.929Z,14.53
2022-09-12T01:51:07.581Z,14.54
2022-09-12T01:52:25.726Z,14.52
2022-09-12T01:53:33.705Z,14.52
2022-09-12T01:54:41.221Z,14.51
2022-09-12T01:55:54.002Z,14.51
2022-09-12T01:57:00.927Z,14.49
2022-09-12T01:58:11.104Z,14.49
2022-09-12T01:59:26.795Z,14.51
2022-09-12T02:00:29.217Z,14.48
2022-09-12T02:01:36.652Z,14.49
2022-09-12T02:02:49.191Z,14.49
2022-09-12T02:04:02.083Z,14.48
2022-09-12T02:05:10.983Z,14.48
2022-09-12T02:06:20.667Z,14.47
2022-09-12T02:07:39.436Z,14.48
2022-09-12T02:08:47.802Z,14.47
2022-09-12T02:10:05.172Z,14.47
2022-09-12T02:11:11.158Z,14.47
2022-09-12T02:12:19.050Z,14.47
2022-09-12T02:13:55.521Z,14.47
2022-09-12T02:15:03.989Z,14.48
2022-09-12T02:16:13.506Z,14.47
2022-09-12T02:17:22.397Z,14.46
2022-09-12T02:18:27.384Z,14.47
2022-09-12T02:19:34.637Z,14.45
2022-09-12T02:20:54.887Z,14.45
2022-09-12T02:22:00.558Z,14.46
2022-09-12T02:23:06.200Z,14.44
2022-09-12T02:24:12.554Z,14.44
2022-09-12T02:25:20.659Z,14.45
2022-09-12T02:26:29.966Z,14.45
2022-09-12T02:27:44.870Z,14.45
2022-09-12T02:28:47.625Z,14.44
2022-09-12T02:29:50.094Z,14.44
2022-09-12T02:31:21.756Z,14.43
2022-09-12T02:32:29.721Z,14.44
2022-09-12T02:34:09.954Z,14.43
2022-09-12T02:35:43.995Z,14.43
2022-09-12T02:36:57.739Z,14.41
2022-09-12T02:38:08.045Z,14.42
2022-09-12T02:39:10.241Z,14.42
2022-09-12T02:40:13.802Z,14.40
2022-09-12T02:41:19.677Z,14.40
2022-09-12T02:42:22.617Z,14.40
2022-09-12T02:43:25.144Z,14.40
2022-09-12T02:44:29.466Z,14.39
2022-09-12T02:45:34.418Z,14.38
2022-09-12T02:46:44.306Z,14.38
2022-09-12T02:48:04.420Z,14.38
2022-09-12T02:49:09.252Z,14.38
2022-09-12T02:50:13.068Z,14.38
2022-09-12T02:51:19.233Z,14.38
2022-09-12T02:52:24.211Z,14.38
2022-09-12T02:53:27.529Z,14.38
2022-09-12T02:54:31.121Z,14.38
2022-09-12T02:55:35.185Z,14.37
2022-09-12T02:56:46.195Z,14.38
2022-09-12T02:57:48.576Z,14.36
2022-09-12T02:58:51.461Z,14.36
2022-09-12T02:59:57.181Z,14.37
2022-09-12T03:01:33.967Z,14.37
2022-09-12T03:03:06.413Z,14.36
2022-09-12T03:04:31.841Z,14.37
2022-09-12T03:05:49.674Z,14.36
2022-09-12T03:07:00.350Z,14.36
2022-09-12T03:08:22.205Z,14.36
2022-09-12T03:10:08.130Z,14.35
2022-09-12T03:11:39.952Z,14.33
2022-09-12T03:12:42.784Z,14.32
2022-09-12T03:13:55.481Z,14.32
2022-09-12T03:15:21.117Z,14.32
2022-09-12T03:16:50.424Z,14.30
2022-09-12T03:18:27.236Z,14.31
2022-09-12T03:19:39.217Z,14.29
2022-09-12T03:21:00.211Z,14.27
2022-09-12T03:22:28.833Z,14.27
2022-09-12T03:23:41.324Z,14.26
2022-09-12T03:24:51.969Z,14.25
2022-09-12T03:26:01.334Z,14.25
2022-09-12T03:27:16.485Z,14.24
2022-09-12T03:28:20.917Z,14.24
2022-09-12T03:29:25.484Z,14.23
2022-09-12T03:30:27.789Z,14.23
2022-09-12T03:31:30.133Z,14.22
2022-09-12T03:32:43.876Z,14.21
2022-09-12T03:33:46.177Z,14.21
2022-09-12T03:34:55.620Z,14.21
2022-09-12T03:35:58.076Z,14.21
2022-09-12T03:37:03.552Z,14.21
2022-09-12T03:38:08.122Z,14.21
2022-09-12T03:39:13.408Z,14.22
2022-09-12T03:40:15.714Z,14.21
2022-09-12T03:41:18.276Z,14.21
2022-09-12T03:42:20.390Z,14.21
2022-09-12T03:43:22.609Z,14.23
2022-09-12T03:44:27.604Z,14.21
2022-09-12T03:45:29.830Z,14.21
2022-09-12T03:46:32.162Z,14.21
2022-09-12T03:47:37.533Z,14.20
2022-09-12T03:48:40.588Z,14.21
2022-09-12T03:49:42.737Z,14.21
2022-09-12T03:50:44.903Z,14.22
2022-09-12T03:51:47.097Z,14.21
2022-09-12T03:52:49.251Z,14.21
2022-09-12T03:53:51.420Z,14.21
2022-09-12T03:54:53.610Z,14.21
2022-09-12T03:55:58.297Z,14.21
2022-09-12T03:57:03.441Z,14.23
2022-09-12T03:58:05.632Z,14.21
2022-09-12T03:59:08.182Z,14.21
2022-09-12T04:00:11.105Z,14.20
2022-09-12T04:01:25.159Z,14.21
2022-09-12T04:02:27.575Z,14.20
2022-09-12T04:03:29.751Z,14.21
2022-09-12T04:04:32.605Z,14.20
2022-09-12T04:05:37.903Z,14.21
2022-09-12T04:06:42.320Z,14.20
2022-09-12T04:07:44.447Z,14.19
2022-09-12T04:08:51.507Z,14.20
2022-09-12T04:09:54.066Z,14.19
2022-09-12T04:11:03.112Z,14.19
2022-09-12T04:12:05.710Z,14.19
2022-09-12T04:13:08.138Z,14.19
2022-09-12T04:14:10.362Z,14.18
2022-09-12T04:15:12.993Z,14.18
2022-09-12T04:16:16.204Z,14.18
2022-09-12T04:17:18.373Z,14.16
2022-09-12T04:18:22.838Z,14.17
2022-09-12T04:19:26.738Z,14.15
2022-09-12T04:20:28.953Z,14.16
2022-09-12T04:21:38.591Z,14.16
2022-09-12T04:22:40.803Z,14.16
2022-09-12T04:23:43.522Z,14.15
2022-09-12T04:24:45.690Z,14.15
2022-09-12T04:25:58.748Z,14.15
2022-09-12T04:27:02.843Z,14.15
2022-09-12T04:28:08.270Z,14.15
2022-09-12T04:29:15.115Z,14.14
2022-09-12T04:30:17.319Z,14.14
2022-09-12T04:31:22.695Z,14.14
2022-09-12T04:32:24.932Z,14.14
2022-09-12T04:33:27.080Z,14.13
2022-09-12T04:34:31.543Z,14.12
2022-09-12T04:35:35.776Z,14.13
2022-09-12T04:36:38.412Z,14.12
2022-09-12T04:37:40.571Z,14.13
2022-09-12T04:38:47.471Z,14.11
2022-09-12T04:39:49.894Z,14.12
2022-09-12T04:40:52.163Z,14.12
2022-09-12T04:42:06.663Z,14.12
2022-09-12T04:43:14.279Z,14.11
2022-09-12T04:44:16.831Z,14.11
2022-09-12T04:45:19.266Z,14.12
2022-09-12T04:46:21.915Z,14.12
2022-09-12T04:47:24.047Z,14.11
2022-09-12T04:48:26.289Z,14.10
2022-09-12T04:49:28.442Z,14.10
2022-09-12T04:50:30.693Z,14.10
2022-09-12T04:51:36.023Z,14.12
2022-09-12T04:52:38.177Z,14.10
2022-09-12T04:53:41.212Z,14.10
2022-09-12T04:54:46.209Z,14.10
2022-09-12T04:55:50.613Z,14.10
2022-09-12T04:56:53.081Z,14.08
2022-09-12T04:57:55.224Z,14.09
2022-09-12T04:58:59.302Z,14.09
2022-09-12T05:00:07.281Z,14.08
2022-09-12T05:01:18.164Z,14.09
2022-09-12T05:02:20.387Z,14.07
2022-09-12T05:03:22.569Z,14.07
2022-09-12T05:04:24.794Z,14.07
2022-09-12T05:05:26.995Z,14.08
2022-09-12T05:06:34.980Z,14.07
2022-09-12T05:07:37.432Z,14.07
2022-09-12T05:08:39.664Z,14.07
2022-09-12T05:09:42.049Z,14.07
2022-09-12T05:10:44.343Z,14.06
2022-09-12T05:13:12.128Z,14.07
2022-09-12T05:14:14.389Z,14.07
2022-09-12T05:15:16.560Z,14.06
2022-09-12T05:16:22.053Z,14.07
2022-09-12T05:17:33.355Z,14.07
2022-09-12T05:18:36.793Z,14.07
2022-09-12T05:19:39.326Z,14.07
2022-09-12T05:20:41.510Z,14.06
2022-09-12T05:21:43.944Z,14.07
2022-09-12T05:22:46.064Z,14.06
2022-09-12T05:23:51.903Z,14.06
2022-09-12T05:24:57.097Z,14.07
2022-09-12T05:26:00.749Z,14.08
2022-09-12T05:27:07.125Z,14.07
2022-09-12T05:28:09.330Z,14.06
2022-09-12T05:29:11.663Z,14.07
2022-09-12T05:30:13.940Z,14.07
2022-09-12T05:31:18.628Z,14.09
2022-09-12T05:32:20.917Z,14.08
2022-09-12T05:33:25.109Z,14.08
2022-09-12T05:34:28.018Z,14.09
2022-09-12T05:35:30.276Z,14.09
2022-09-12T05:36:33.049Z,14.09
2022-09-12T05:37:35.257Z,14.08
2022-09-12T05:38:37.945Z,14.10
2022-09-12T05:39:40.143Z,14.10
2022-09-12T05:40:45.374Z,14.11
2022-09-12T05:41:47.748Z,14.11
2022-09-12T05:42:50.936Z,14.12
2022-09-12T05:43:55.128Z,14.12
2022-09-12T05:44:57.499Z,14.12
2022-09-12T05:46:09.008Z,14.13
2022-09-12T05:47:13.124Z,14.13
2022-09-12T05:48:15.601Z,14.15
2022-09-12T05:49:17.752Z,14.16
2022-09-12T05:50:20.690Z,14.16
2022-09-12T05:51:26.686Z,14.18
2022-09-12T05:52:28.900Z,14.18
2022-09-12T05:53:31.512Z,14.19
2022-09-12T05:54:37.465Z,14.21
2022-09-12T05:55:41.963Z,14.21
2022-09-12T05:56:46.667Z,14.22
2022-09-12T05:57:49.070Z,14.22
2022-09-12T05:58:56.638Z,14.25
2022-09-12T06:00:02.989Z,14.25
2022-09-12T06:01:16.560Z,14.28
2022-09-12T06:02:18.882Z,14.28
2022-09-12T06:03:21.033Z,14.29
2022-09-12T06:04:23.859Z,14.30
2022-09-12T06:05:28.453Z,14.31
2022-09-12T06:06:32.482Z,14.32
2022-09-12T06:07:35.820Z,14.33
2022-09-12T06:08:40.315Z,14.35
2022-09-12T06:09:42.492Z,14.37
2022-09-12T06:10:44.611Z,14.38
2022-09-12T06:11:47.282Z,14.40
2022-09-12T06:12:49.505Z,14.41
2022-09-12T06:13:52.348Z,14.43
2022-09-12T06:14:54.502Z,14.44
2022-09-12T06:16:06.609Z,14.47
2022-09-12T06:17:08.749Z,14.48
2022-09-12T06:18:11.895Z,14.49
2022-09-12T06:19:16.983Z,14.51
2022-09-12T06:20:20.382Z,14.53
2022-09-12T06:21:24.202Z,14.55
2022-09-12T06:22:26.526Z,14.57
2022-09-12T06:23:28.696Z,14.61
2022-09-12T06:24:34.175Z,14.61
2022-09-12T06:25:38.616Z,14.64
2022-09-12T06:26:40.844Z,14.66
2022-09-12T06:27:43.011Z,14.70
2022-09-12T06:28:45.264Z,14.72
2022-09-12T06:29:47.399Z,14.75
2022-09-12T06:30:49.579Z,14.78
2022-09-12T06:31:51.823Z,14.80
2022-09-12T06:32:56.251Z,14.82
2022-09-12T06:34:01.667Z,14.85
2022-09-12T06:35:05.591Z,14.88
2022-09-12T06:36:16.478Z,14.92
2022-09-12T06:37:18.670Z,14.94
2022-09-12T06:38:20.803Z,14.97
2022-09-12T06:39:23.421Z,14.98
2022-09-12T06:40:25.619Z,15.02
2022-09-12T06:41:29.888Z,15.04
2022-09-12T06:42:33.021Z,15.09
2022-09-12T06:43:35.672Z,15.11
2022-09-12T06:44:37.892Z,15.14
2022-09-12T06:45:40.419Z,15.17
2022-09-12T06:46:42.931Z,15.19
2022-09-12T06:47:45.069Z,15.22
2022-09-12T06:48:50.348Z,15.25
2022-09-12T06:49:52.502Z,15.29
2022-09-12T06:50:59.001Z,15.31
2022-09-12T06:52:02.354Z,15.34
2022-09-12T06:53:07.579Z,15.37
2022-09-12T06:54:13.018Z,15.41
2022-09-12T06:55:19.460Z,15.43
2022-09-12T06:56:24.963Z,15.47
2022-09-12T06:57:30.468Z,15.51
2022-09-12T06:58:34.035Z,15.53
2022-09-12T06:59:36.197Z,15.56
2022-09-12T07:00:38.724Z,15.59
2022-09-12T07:01:42.058Z,15.62
2022-09-12T07:02:44.395Z,15.64
2022-09-12T07:03:55.955Z,15.67
2022-09-12T07:04:58.091Z,15.69
2022-09-12T07:06:09.008Z,15.71
2022-09-12T07:07:11.430Z,15.73
2022-09-12T07:08:13.587Z,15.76
2022-09-12T07:09:18.486Z,15.77
2022-09-12T07:10:22.441Z,15.81
2022-09-12T07:11:27.383Z,15.82
2022-09-12T07:12:32.438Z,15.85
2022-09-12T07:13:35.034Z,15.87
2022-09-12T07:14:37.209Z,15.90
2022-09-12T07:15:39.405Z,15.92
2022-09-12T07:16:44.650Z,15.95
2022-09-12T07:17:46.865Z,15.96
2022-09-12T07:18:58.531Z,15.98
2022-09-12T07:21:16.792Z,16.02
2022-09-12T07:22:22.319Z,16.02
2022-09-12T07:23:24.452Z,16.02
2022-09-12T07:24:26.879Z,16.03
2022-09-12T07:25:29.059Z,16.06
2022-09-12T07:26:31.505Z,16.07
2022-09-12T07:27:33.694Z,16.09
2022-09-12T07:28:36.322Z,16.10
2022-09-12T07:29:38.652Z,16.12
2022-09-12T07:30:40.920Z,16.14
2022-09-12T07:31:43.512Z,16.16
2022-09-12T07:32:45.684Z,16.20
2022-09-12T07:33:54.435Z,16.23
2022-09-12T07:34:56.844Z,16.28
2022-09-12T07:36:07.456Z,16.31
2022-09-12T07:37:09.748Z,16.37
2022-09-12T07:38:11.865Z,16.42
2022-09-12T07:39:13.992Z,16.46
2022-09-12T07:40:16.284Z,16.50
2022-09-12T07:41:24.276Z,16.53
2022-09-12T07:42:26.962Z,16.60
2022-09-12T07:43:29.237Z,16.63
2022-09-12T07:44:31.394Z,16.66
2022-09-12T07:45:34.039Z,16.68
2022-09-12T07:46:36.244Z,16.72
2022-09-12T07:47:38.442Z,16.76
2022-09-12T07:48:41.156Z,16.79
2022-09-12T07:49:43.355Z,16.83
2022-09-12T07:50:45.774Z,16.87
2022-09-12T07:51:47.957Z,16.91
2022-09-12T07:52:50.615Z,16.95
2022-09-12T07:53:52.908Z,16.97
2022-09-12T07:54:58.807Z,17.00
2022-09-12T07:56:01.376Z,17.03
2022-09-12T07:57:03.673Z,17.05
2022-09-12T07:58:05.814Z,17.07
2022-09-12T07:59:08.790Z,17.10
2022-09-12T08:00:13.732Z,17.11
2022-09-12T08:01:21.292Z,17.12
2022-09-12T08:02:23.495Z,17.15
2022-09-12T08:03:25.709Z,17.18
2022-09-12T08:04:27.846Z,17.19
2022-09-12T08:05:30.122Z,17.24
2022-09-12T08:06:36.016Z,17.24
2022-09-12T08:07:38.369Z,17.26
2022-09-12T08:08:40.770Z,17.28
2022-09-12T08:09:42.908Z,17.31
2022-09-12T08:10:45.088Z,17.33
2022-09-12T08:11:47.290Z,17.35
2022-09-12T08:12:50.499Z,17.37
2022-09-12T08:13:55.877Z,17.40
2022-09-12T08:15:01.390Z,17.42
2022-09-12T08:16:08.722Z,17.45
2022-09-12T08:17:10.936Z,17.47
2022-09-12T08:18:13.088Z,17.51
2022-09-12T08:19:15.350Z,17.54
2022-09-12T08:20:18.196Z,17.58
2022-09-12T08:21:23.465Z,17.63
2022-09-12T08:22:25.969Z,17.67
2022-09-12T08:23:31.875Z,17.72
2022-09-12T08:24:34.320Z,17.78
2022-09-12T08:25:42.689Z,17.82
2022-09-12T08:26:44.850Z,17.87
2022-09-12T08:27:47.026Z,17.93
2022-09-12T08:28:49.434Z,18.01
2022-09-12T08:29:55.594Z,18.08
2022-09-12T08:31:04.607Z,18.16
2022-09-12T08:32:06.988Z,18.24
2022-09-12T08:33:09.133Z,18.30
2022-09-12T08:34:11.307Z,18.37
2022-09-12T08:35:15.415Z,18.46
2022-09-12T08:36:19.997Z,18.53
2022-09-12T08:37:23.220Z,18.60
2022-09-12T08:38:25.428Z,18.66
2022-09-12T08:39:27.624Z,18.73
2022-09-12T08:40:30.254Z,18.78
2022-09-12T08:41:38.458Z,18.86
2022-09-12T08:42:54.290Z,18.95
2022-09-12T08:44:05.443Z,19.03
2022-09-12T08:45:35.560Z,19.14
2022-09-12T08:46:50.111Z,19.22
2022-09-12T08:47:52.766Z,19.31
2022-09-12T08:48:58.231Z,19.38
2022-09-12T08:50:12.655Z,19.45
2022-09-12T08:51:21.710Z,19.54
2022-09-12T08:52:27.763Z,19.62
2022-09-12T08:53:33.978Z,19.69
2022-09-12T08:54:40.876Z,19.74
2022-09-12T08:55:45.501Z,19.82
2022-09-12T08:56:48.421Z,19.89
2022-09-12T08:57:52.105Z,19.97
2022-09-12T08:58:54.969Z,20.06
2022-09-12T09:00:04.625Z,20.17
2022-09-12T09:01:40.735Z,20.27
2022-09-12T09:03:02.624Z,20.38
2022-09-12T09:04:35.854Z,20.49
2022-09-12T09:05:51.866Z,20.61
2022-09-12T09:07:15.529Z,20.71
2022-09-12T09:08:58.519Z,20.84
2022-09-12T09:10:20.985Z,20.97
2022-09-12T09:11:48.422Z,21.09
2022-09-12T09:13:52.135Z,21.21
2022-09-12T09:15:24.858Z,21.37
2022-09-12T09:16:39.801Z,21.51
2022-09-12T09:17:46.556Z,21.61
2022-09-12T09:18:50.833Z,21.71
2022-09-12T09:20:02.879Z,21.81
2022-09-12T09:21:23.892Z,21.92
2022-09-12T09:22:41.780Z,21.99
2022-09-12T09:23:49.639Z,22.06
2022-09-12T09:24:59.726Z,22.11
2022-09-12T09:26:10.954Z,22.17
2022-09-12T09:27:40.975Z,22.22
2022-09-12T09:28:55.311Z,22.26
2022-09-12T09:29:57.829Z,22.30
2022-09-12T09:31:01.861Z,22.35
2022-09-12T09:32:13.682Z,22.40
2022-09-12T09:33:22.294Z,22.45
2022-09-12T09:34:31.745Z,22.51
2022-09-12T09:35:49.240Z,22.56
2022-09-12T09:37:11.312Z,22.64
2022-09-12T09:38:31.796Z,22.70
2022-09-12T09:39:48.671Z,22.79
2022-09-12T09:40:53.814Z,22.83
2022-09-12T09:42:27.019Z,22.92
2022-09-12T09:43:29.240Z,22.99
2022-09-12T09:44:31.728Z,23.05
2022-09-12T09:45:34.006Z,23.11
2022-09-12T09:46:36.240Z,23.16
2022-09-12T09:47:38.375Z,23.19
2022-09-12T09:48:51.311Z,23.24
2022-09-12T09:49:53.486Z,23.27
2022-09-12T09:51:01.828Z,23.32
2022-09-12T09:52:07.304Z,23.34
2022-09-12T09:53:32.103Z,23.39
2022-09-12T09:54:55.336Z,23.42
2022-09-12T09:56:02.457Z,23.43
2022-09-12T09:57:05.274Z,23.47
2022-09-12T09:58:07.474Z,23.50
2022-09-12T09:59:17.048Z,23.52
2022-09-12T10:00:33.146Z,23.53
2022-09-12T10:01:35.333Z,23.53
2022-09-12T10:02:37.574Z,23.55
2022-09-12T10:03:51.810Z,23.56
2022-09-12T10:04:56.415Z,23.55
2022-09-12T10:06:07.451Z,23.56
2022-09-12T10:07:19.539Z,23.55
2022-09-12T10:08:31.906Z,23.53
2022-09-12T10:09:37.196Z,23.53
2022-09-12T10:10:53.601Z,23.53
2022-09-12T10:11:57.054Z,23.52
2022-09-12T10:13:25.898Z,23.52
2022-09-12T10:14:37.855Z,23.54
2022-09-12T10:15:56.445Z,23.55
2022-09-12T10:17:00.003Z,23.57
2022-09-12T10:18:03.247Z,23.61
2022-09-12T10:19:05.475Z,23.63
2022-09-12T10:20:35.760Z,23.65
2022-09-12T10:21:47.610Z,23.67
2022-09-12T10:22:49.836Z,23.69
2022-09-12T10:24:00.626Z,23.73
2022-09-12T10:25:04.067Z,23.76
2022-09-12T10:26:21.128Z,23.80
2022-09-12T10:27:26.229Z,23.82
2022-09-12T10:28:40.540Z,23.87
2022-09-12T10:30:02.182Z,23.89
2022-09-12T10:31:05.105Z,23.87
2022-09-12T10:32:09.352Z,23.87
2022-09-12T10:33:12.929Z,23.87
2022-09-12T10:34:27.953Z,23.87
2022-09-12T10:35:45.000Z,23.83
2022-09-12T10:36:47.702Z,23.82
2022-09-12T10:37:57.249Z,23.81
2022-09-12T10:39:01.538Z,23.79
2022-09-12T10:40:08.137Z,23.78
2022-09-12T10:41:12.025Z,23.78
2022-09-12T10:42:17.484Z,23.77
2022-09-12T10:43:29.874Z,23.77
2022-09-12T10:44:34.624Z,23.78
2022-09-12T10:45:37.919Z,23.78
2022-09-12T10:46:40.481Z,23.79
2022-09-12T10:47:42.845Z,23.80
2022-09-12T10:48:52.845Z,23.81
2022-09-12T10:50:26.293Z,23.85
2022-09-12T10:51:29.095Z,23.86
2022-09-12T10:52:34.363Z,23.88
2022-09-12T10:53:43.926Z,23.91
2022-09-12T10:54:46.104Z,23.92
2022-09-12T10:56:21.526Z,23.95
2022-09-12T10:57:29.665Z,23.97
2022-09-12T10:58:36.823Z,23.99
2022-09-12T10:59:57.601Z,24.01
2022-09-12T11:01:13.737Z,24.00
2022-09-12T11:02:29.614Z,24.01
2022-09-12T11:03:45.124Z,24.02
2022-09-12T11:04:59.387Z,24.04
2022-09-12T11:06:02.089Z,24.02
2022-09-12T11:07:29.733Z,24.03
2022-09-12T11:08:55.378Z,24.02
2022-09-12T11:10:15.838Z,24.03
2022-09-12T11:11:59.158Z,24.03
2022-09-12T11:13:22.499Z,24.04
2022-09-12T11:14:55.771Z,24.03
2022-09-12T11:16:16.173Z,24.04
2022-09-12T11:17:47.113Z,24.04
2022-09-12T11:19:04.961Z,24.03
2022-09-12T11:20:25.806Z,24.03
2022-09-12T11:21:58.353Z,24.03
2022-09-12T11:23:31.110Z,24.01
2022-09-12T11:24:43.508Z,23.98
2022-09-12T11:26:20.775Z,23.97
2022-09-12T11:27:44.161Z,23.93
2022-09-12T11:28:53.240Z,23.92
2022-09-12T11:30:02.199Z,23.91
2022-09-12T11:31:40.170Z,23.92
2022-09-12T11:33:06.556Z,23.90
2022-09-12T11:34:10.801Z,23.88
2022-09-12T11:35:30.535Z,23.88
2022-09-12T11:36:59.117Z,23.86
2022-09-12T11:38:10.811Z,23.84
2022-09-12T11:39:18.186Z,23.83
2022-09-12T11:40:50.438Z,23.82
2022-09-12T11:42:00.519Z,23.82
2022-09-12T11:43:18.205Z,23.79
2022-09-12T11:44:26.381Z,23.78
2022-09-12T11:45:38.887Z,23.78
2022-09-12T11:46:43.787Z,23.75
2022-09-12T11:47:52.176Z,23.74
2022-09-12T11:49:09.648Z,23.70
2022-09-12T11:50:26.403Z,23.68
2022-09-12T11:51:39.836Z,23.66
2022-09-12T11:52:41.981Z,23.63
2022-09-12T11:53:54.521Z,23.60
2022-09-12T11:55:08.417Z,23.59
2022-09-12T11:56:19.882Z,23.57
2022-09-12T11:57:39.389Z,23.53
2022-09-12T11:58:46.423Z,23.51
2022-09-12T12:00:15.021Z,23.46
2022-09-12T12:01:26.545Z,23.41
2022-09-12T12:02:31.116Z,23.40
2022-09-12T12:03:48.946Z,23.37
2022-09-12T12:05:17.804Z,23.35
2022-09-12T12:06:27.483Z,23.33
2022-09-12T12:07:45.325Z,23.31
2022-09-12T12:08:50.627Z,23.29
2022-09-12T12:09:52.985Z,23.29
2022-09-12T12:11:00.842Z,23.28
2022-09-12T12:12:15.951Z,23.27
2022-09-12T12:13:27.937Z,23.27
2022-09-12T12:14:43.323Z,23.26
2022-09-12T12:16:09.793Z,23.26
2022-09-12T12:17:24.193Z,23.26
2022-09-12T12:18:29.132Z,23.25
2022-09-12T12:19:36.929Z,23.25
2022-09-12T12:20:39.937Z,23.25
2022-09-12T12:21:44.496Z,23.24
2022-09-12T12:22:56.156Z,23.22
2022-09-12T12:24:15.476Z,23.20
2022-09-12T12:25:21.591Z,23.16
2022-09-12T12:26:54.847Z,23.16
2022-09-12T12:28:01.552Z,23.12
2022-09-12T12:29:03.886Z,23.14
2022-09-12T12:30:28.927Z,23.11
2022-09-12T12:31:31.397Z,23.12
2022-09-12T12:32:36.455Z,23.12
2022-09-12T12:33:38.535Z,23.12
2022-09-12T12:34:43.345Z,23.14
2022-09-12T12:36:04.122Z,23.14
2022-09-12T12:37:28.163Z,23.13
2022-09-12T12:38:31.556Z,23.14
2022-09-12T12:39:33.949Z,23.14
2022-09-12T12:40:38.945Z,23.15
2022-09-12T12:41:46.907Z,23.16
2022-09-12T12:42:49.291Z,23.15
2022-09-12T12:43:54.677Z,23.17
2022-09-12T12:44:56.930Z,23.15
2022-09-12T12:46:05.971Z,23.13
2022-09-12T12:47:18.684Z,23.13
2022-09-12T12:48:21.709Z,23.13
2022-09-12T12:49:28.592Z,23.13
2022-09-12T12:50:32.089Z,23.09
2022-09-12T12:51:48.577Z,23.08
2022-09-12T12:52:58.442Z,23.05
2022-09-12T12:54:04.071Z,23.04
2022-09-12T12:55:15.943Z,23.04
2022-09-12T12:56:38.306Z,23.02
2022-09-12T12:57:51.039Z,23.02
2022-09-12T12:59:02.582Z,22.99
2022-09-12T13:00:40.077Z,22.98
2022-09-12T13:01:56.455Z,22.98
2022-09-12T13:03:20.700Z,22.97
2022-09-12T13:04:26.996Z,22.95
2022-09-12T13:05:38.424Z,22.97
2022-09-12T13:06:45.554Z,22.95
2022-09-12T13:08:03.328Z,22.94
2022-09-12T13:09:09.750Z,22.93
2022-09-12T13:10:31.284Z,22.93
2022-09-12T13:11:41.342Z,22.92
2022-09-12T13:12:49.068Z,22.92
2022-09-12T13:13:58.216Z,22.89
2022-09-12T13:15:02.445Z,22.87
2022-09-12T13:16:05.153Z,22.88
2022-09-12T13:17:14.222Z,22.87
2022-09-12T13:18:26.495Z,22.84
2022-09-12T13:19:33.555Z,22.84
2022-09-12T13:20:52.368Z,22.84
2022-09-12T13:21:56.536Z,22.83
2022-09-12T13:22:59.310Z,22.82
2022-09-12T13:24:13.419Z,22.81
2022-09-12T13:25:38.938Z,22.81
2022-09-12T13:26:44.048Z,22.79
2022-09-12T13:28:12.078Z,22.79
2022-09-12T13:29:28.201Z,22.78
2022-09-12T13:30:33.162Z,22.78
2022-09-12T13:31:35.674Z,22.78
2022-09-12T13:32:38.253Z,22.77
2022-09-12T13:33:47.009Z,22.76
2022-09-12T13:35:00.679Z,22.76
2022-09-12T13:36:11.931Z,22.76
2022-09-12T13:37:49.697Z,22.75
2022-09-12T13:38:58.499Z,22.76
2022-09-12T13:40:37.998Z,22.74
2022-09-12T13:42:08.007Z,22.73
2022-09-12T13:43:25.407Z,22.73
2022-09-12T13:44:35.526Z,22.72
2022-09-12T13:45:39.740Z,22.71
2022-09-12T13:46:44.846Z,22.71
2022-09-12T13:47:54.270Z,22.71
2022-09-12T13:49:07.187Z,22.70
2022-09-12T13:50:24.565Z,22.70
2022-09-12T13:51:29.601Z,22.69
2022-09-12T13:52:34.735Z,22.69
2022-09-12T13:53:46.372Z,22.69
2022-09-12T13:54:51.984Z,22.67
2022-09-12T13:55:58.420Z,22.68
2022-09-12T13:57:03.106Z,22.67
2022-09-12T13:58:14.472Z,22.68
2022-09-12T13:59:16.676Z,22.65
2022-09-12T14:00:19.837Z,22.67
2022-09-12T14:01:22.897Z,22.65
2022-09-12T14:02:28.924Z,22.65
2022-09-12T14:03:59.625Z,22.65
2022-09-12T14:05:11.781Z,22.63
2022-09-12T14:06:16.664Z,22.62
2022-09-12T14:07:25.860Z,22.61
2022-09-12T14:08:28.328Z,22.59
2022-09-12T14:09:42.646Z,22.58
2022-09-12T14:10:47.855Z,22.56
2022-09-12T14:11:52.184Z,22.54
2022-09-12T14:12:56.711Z,22.53
2022-09-12T14:14:02.394Z,22.52
2022-09-12T14:15:20.214Z,22.52
2022-09-12T14:16:26.475Z,22.49
2022-09-12T14:17:36.885Z,22.48
2022-09-12T14:18:45.191Z,22.47
2022-09-12T14:19:48.378Z,22.46
2022-09-12T14:20:56.184Z,22.45
2022-09-12T14:21:58.622Z,22.44
2022-09-12T14:23:06.105Z,22.43
2022-09-12T14:24:12.731Z,22.43
2022-09-12T14:25:18.024Z,22.41
2022-09-12T14:26:20.414Z,22.41
2022-09-12T14:27:29.230Z,22.41
2022-09-12T14:28:34.471Z,22.39
2022-09-12T14:29:39.337Z,22.39
2022-09-12T14:30:41.591Z,22.39
2022-09-12T14:31:44.287Z,22.38
2022-09-12T14:33:25.745Z,22.37
2022-09-12T14:34:28.186Z,22.37
2022-09-12T14:35:30.764Z,22.37
2022-09-12T14:36:41.687Z,22.36
2022-09-12T14:37:46.535Z,22.35
2022-09-12T14:38:59.214Z,22.34
2022-09-12T14:40:01.652Z,22.35
2022-09-12T14:41:08.522Z,22.33
2022-09-12T14:42:18.388Z,22.33
2022-09-12T14:43:36.167Z,22.32
2022-09-12T14:44:39.500Z,22.32
2022-09-12T14:45:44.539Z,22.30
2022-09-12T14:46:48.687Z,22.28
2022-09-12T14:47:53.262Z,22.27
2022-09-12T14:49:31.932Z,22.23